Time;durP1;ratioP1;P1;durP2;ratioP2;P2;SDS_P1;SDS_P2;PMS_P1;PMS_P2;Temp;Humidity;BMP_temperature;BMP_pressure;BME280_temperature;BME280_humidity;BME280_pressure;Samples;Min_cycle;Max_cycle;Signal;HPM_P1;HPM_P2
2022/12/14 00:03:11;;;;;;;16.50;7.93;;;3.70;96.30;;;;;;10397558;28;20025;-63
2022/12/14 00:08:13;;;;;;;18.17;7.80;;;3.30;96.20;;;;;;10394220;28;20284;-63
2022/12/14 00:13:14;;;;;;;13.75;6.80;;;4.30;96.40;;;;;;10396947;28;20076;-63
2022/12/14 00:18:15;;;;;;;14.73;7.15;;;3.20;96.20;;;;;;10396482;28;20060;-63
2022/12/14 00:23:15;;;;;;;14.90;6.57;;;4.70;96.50;;;;;;10397073;28;20112;-63
2022/12/14 00:28:16;;;;;;;12.52;6.60;;;3.20;96.20;;;;;;10396505;28;20071;-63
2022/12/14 00:33:17;;;;;;;13.65;6.88;;;3.20;96.20;;;;;;10396456;28;20037;-64
2022/12/14 00:38:17;;;;;;;14.82;6.85;;;3.80;96.30;;;;;;10396782;28;20025;-63
2022/12/14 00:43:18;;;;;;;13.70;7.35;;;3.60;96.50;;;;;;10396408;28;20041;-63
2022/12/14 00:48:20;;;;;;;15.75;7.05;;;3.50;96.30;;;;;;10395145;28;20028;-65
2022/12/14 00:53:22;;;;;;;14.90;7.18;;;3.20;96.20;;;;;;10398144;28;20077;-63
2022/12/14 00:58:23;;;;;;;12.77;6.25;;;4.00;96.40;;;;;;10382434;28;20055;-63
2022/12/14 01:03:24;;;;;;;17.70;7.75;;;3.20;96.20;;;;;;10401524;28;20033;-64
2022/12/14 01:08:25;;;;;;;14.85;6.82;;;4.80;96.60;;;;;;10403206;28;20037;-64
2022/12/14 01:13:26;;;;;;;15.10;6.35;;;3.20;96.10;;;;;;10383242;28;20080;-63
2022/12/14 01:18:26;;;;;;;13.48;6.38;;;3.20;96.20;;;;;;10402529;28;20140;-64
2022/12/14 01:23:27;;;;;;;13.32;6.35;;;3.60;96.30;;;;;;10402582;28;20038;-64
2022/12/14 01:28:28;;;;;;;14.27;6.38;;;3.20;96.10;;;;;;10402747;28;20082;-63
2022/12/14 01:33:28;;;;;;;14.40;6.97;;;3.50;96.20;;;;;;10402459;28;20044;-63
2022/12/14 01:38:29;;;;;;;15.38;6.78;;;3.10;96.10;;;;;;10402929;28;20037;-63
2022/12/14 01:43:54;;;;;;;14.95;6.55;;;3.50;96.20;;;;;;10401829;28;20124;-63
2022/12/14 01:49:06;;;;;;;12.93;6.43;;;3.10;96.10;;;;;;10401576;28;20490;-63
2022/12/14 01:54:09;;;;;;;17.00;6.80;;;3.10;96.10;;;;;;10394790;28;20053;-64
2022/12/14 01:59:17;;;;;;;13.35;5.95;;;4.30;96.40;;;;;;10398215;28;20029;-64
2022/12/14 02:04:18;;;;;;;15.55;6.55;;;3.10;96.10;;;;;;10399849;28;20076;-63
2022/12/14 02:09:24;;;;;;;15.38;6.65;;;3.50;96.20;;;;;;10401233;28;20076;-63
2022/12/14 02:14:25;;;;;;;14.70;6.15;;;3.10;95.90;;;;;;10400349;28;20033;-63
2022/12/14 02:19:27;;;;;;;13.15;6.07;;;3.20;96.20;;;;;;10400441;28;20029;-63
2022/12/14 02:24:51;;;;;;;13.60;6.13;;;3.60;96.30;;;;;;10398511;28;20029;-63
2022/12/14 02:30:18;;;;;;;12.50;6.40;;;3.00;96.10;;;;;;10398525;28;20048;-63
2022/12/14 02:35:57;;;;;;;13.27;5.72;;;3.00;96.10;;;;;;10399941;28;20069;-63
2022/12/14 02:41:22;;;;;;;15.05;6.63;;;3.00;96.10;;;;;;10359306;28;20044;-64
2022/12/14 02:47:02;;;;;;;14.80;6.47;;;3.00;96.10;;;;;;10396904;28;20033;-64
2022/12/14 02:52:35;;;;;;;13.10;6.10;;;3.00;96.10;;;;;;10381496;28;20132;-65
2022/12/14 02:58:33;;;;;;;11.98;6.03;;;3.00;96.10;;;;;;10395214;28;20537;-63
2022/12/14 03:03:34;;;;;;;12.93;6.27;;;3.00;96.00;;;;;;10271604;28;20499;-63
2022/12/14 03:08:35;;;;;;;12.10;5.75;;;3.50;96.20;;;;;;10369849;28;20052;-63
2022/12/14 03:13:52;;;;;;;15.13;7.43;;;4.00;96.30;;;;;;10397829;28;20046;-63
2022/12/14 03:19:12;;;;;;;12.27;6.28;;;4.00;96.30;;;;;;10397475;28;20033;-64
2022/12/14 03:24:19;;;;;;;11.55;5.32;;;3.00;95.70;;;;;;10398018;28;20025;-63
2022/12/14 03:29:31;;;;;;;14.02;6.55;;;3.80;96.30;;;;;;10396496;28;20029;-63
2022/12/14 03:34:54;;;;;;;13.85;6.05;;;2.90;96.00;;;;;;10397766;28;20064;-63
2022/12/14 03:39:55;;;;;;;14.80;5.95;;;2.90;96.00;;;;;;10398374;28;20026;-63
2022/12/14 03:45:19;;;;;;;13.98;5.63;;;4.60;96.50;;;;;;10397855;28;20025;-63
2022/12/14 03:50:31;;;;;;;11.77;5.35;;;2.90;96.00;;;;;;10395997;28;20033;-63
2022/12/14 03:55:37;;;;;;;14.35;5.60;;;2.90;96.00;;;;;;10397442;28;20100;-63
2022/12/14 04:00:49;;;;;;;12.40;5.45;;;2.90;96.00;;;;;;10397606;28;20053;-63
2022/12/14 04:06:13;;;;;;;12.95;6.10;;;2.80;96.00;;;;;;10393776;28;20030;-64
2022/12/14 04:22:06;;;;;;;12.70;5.78;;;2.80;96.00;;;;;;10395400;28;20048;-63
2022/12/14 04:27:52;;;;;;;14.68;6.13;;;3.10;96.00;;;;;;10399143;28;20033;-63
2022/12/14 04:32:58;;;;;;;11.27;5.35;;;2.80;95.90;;;;;;10350150;28;20504;-63
2022/12/14 04:38:05;;;;;;;12.07;5.30;;;3.10;96.00;;;;;;10405176;28;20520;-63
2022/12/14 04:43:11;;;;;;;10.63;5.72;;;3.80;96.20;;;;;;10404441;28;20021;-64
2022/12/14 04:48:22;;;;;;;14.27;5.97;;;3.70;96.20;;;;;;10401320;28;20053;-62
2022/12/14 04:53:26;;;;;;;11.52;5.68;;;2.70;95.90;;;;;;10402742;28;20038;-64
2022/12/14 04:58:30;;;;;;;12.80;5.97;;;4.30;96.30;;;;;;10399429;28;20029;-63
2022/12/14 05:03:34;;;;;;;12.13;5.15;;;4.30;96.30;;;;;;10401766;28;20037;-66
2022/12/14 05:09:00;;;;;;;12.63;5.85;;;3.30;96.10;;;;;;10405613;28;20510;-64
2022/12/14 05:14:05;;;;;;;13.65;5.72;;;2.70;95.90;;;;;;10403007;28;20037;-63
2022/12/14 05:19:08;;;;;;;12.75;5.78;;;3.50;96.10;;;;;;10402309;28;20105;-62
2022/12/14 05:24:09;;;;;;;12.38;5.10;;;2.70;95.90;;;;;;10402407;28;20133;-63
2022/12/14 05:29:10;;;;;;;11.75;5.82;;;2.70;95.90;;;;;;10403179;28;20595;-66
2022/12/14 05:34:10;;;;;;;11.00;5.00;;;3.50;96.10;;;;;;10402611;28;20038;-66
2022/12/14 05:39:12;;;;;;;13.50;5.60;;;4.30;96.30;;;;;;10401904;28;20559;-62
2022/12/14 05:44:12;;;;;;;12.57;5.45;;;2.60;95.80;;;;;;10400251;28;20040;-62
2022/12/14 05:49:13;;;;;;;11.90;5.03;;;3.20;96.00;;;;;;10399936;28;20026;-62
2022/12/14 05:54:14;;;;;;;11.90;5.38;;;2.80;95.90;;;;;;10401603;28;20132;-62
2022/12/14 05:59:16;;;;;;;12.38;5.57;;;2.60;95.80;;;;;;10400228;28;20055;-64
2022/12/14 06:04:17;;;;;;;11.65;5.78;;;2.60;95.90;;;;;;10401011;28;20068;-63
2022/12/14 06:09:18;;;;;;;10.52;5.68;;;2.80;95.90;;;;;;10397240;28;20098;-62
2022/12/14 06:14:20;;;;;;;11.02;5.57;;;3.10;95.90;;;;;;10391587;28;20048;-63
2022/12/14 06:19:20;;;;;;;12.63;5.30;;;2.60;95.80;;;;;;10398196;28;20037;-63
2022/12/14 06:24:21;;;;;;;11.57;5.38;;;2.60;95.80;;;;;;10397224;28;20294;-63
2022/12/14 06:29:22;;;;;;;11.18;4.57;;;3.60;96.00;;;;;;10399880;28;20554;-63
2022/12/14 06:34:22;;;;;;;12.00;5.50;;;2.50;95.80;;;;;;10400024;28;20042;-64
2022/12/14 06:39:23;;;;;;;9.88;5.07;;;3.30;96.00;;;;;;10391290;28;20032;-64
2022/12/14 06:44:24;;;;;;;9.95;5.10;;;2.60;95.80;;;;;;10396391;28;20044;-65
2022/12/14 06:49:25;;;;;;;11.10;4.68;;;2.70;95.80;;;;;;10397446;28;20238;-64
2022/12/14 06:54:25;;;;;;;12.23;5.28;;;2.60;95.80;;;;;;10396380;28;20076;-63
2022/12/14 06:59:26;;;;;;;9.75;4.65;;;2.60;95.80;;;;;;10392693;28;20029;-65
2022/12/14 07:04:27;;;;;;;13.55;5.25;;;2.60;95.80;;;;;;10387583;28;20033;-66
2022/12/14 07:09:27;;;;;;;14.00;5.35;;;2.50;95.70;;;;;;10395851;28;20033;-65
2022/12/14 07:14:28;;;;;;;10.05;4.90;;;2.50;95.70;;;;;;10387464;28;20048;-64
2022/12/14 07:19:29;;;;;;;11.98;4.55;;;2.50;95.70;;;;;;10397793;28;20025;-63
2022/12/14 07:24:30;;;;;;;9.73;5.22;;;2.80;95.80;;;;;;10395035;28;20079;-64
2022/12/14 07:29:30;;;;;;;10.68;5.47;;;2.50;95.70;;;;;;10393721;28;20036;-63
2022/12/14 07:34:31;;;;;;;15.60;5.68;;;2.50;95.70;;;;;;10394350;28;20037;-63
2022/12/14 07:39:32;;;;;;;12.13;4.97;;;2.50;95.70;;;;;;10395076;28;20017;-62
2022/12/14 07:44:33;;;;;;;13.88;5.15;;;2.40;95.70;;;;;;10392472;28;20412;-63
2022/12/14 07:49:33;;;;;;;12.80;5.47;;;3.20;95.90;;;;;;10392440;28;20497;-63
2022/12/14 07:54:34;;;;;;;13.13;6.20;;;4.10;96.10;;;;;;10395898;28;20396;-62
2022/12/14 07:59:35;;;;;;;10.63;5.32;;;3.30;95.90;;;;;;10395601;28;20478;-63
2022/12/14 08:04:35;;;;;;;11.98;4.95;;;3.60;96.00;;;;;;10395525;28;20029;-63
2022/12/14 08:09:36;;;;;;;12.93;6.38;;;3.20;95.80;;;;;;10390996;28;20038;-63
2022/12/14 08:14:38;;;;;;;16.25;6.45;;;2.40;95.70;;;;;;10350191;28;20050;-62
2022/12/14 08:19:39;;;;;;;10.75;5.28;;;3.00;95.80;;;;;;10306582;28;20850;-63
2022/12/14 08:24:40;;;;;;;12.25;5.30;;;2.50;95.60;;;;;;10310945;28;21069;-62
2022/12/14 08:29:41;;;;;;;13.60;5.55;;;2.70;95.80;;;;;;10316428;28;20064;-64
2022/12/14 08:34:42;;;;;;;12.32;5.85;;;2.90;95.70;;;;;;10318071;28;20147;-64
2022/12/14 08:39:43;;;;;;;12.55;5.97;;;3.80;95.90;;;;;;10309592;28;20099;-63
2022/12/14 08:44:44;;;;;;;13.68;5.57;;;2.50;95.60;;;;;;10305143;28;20132;-64
2022/12/14 08:49:44;;;;;;;16.75;6.40;;;2.90;95.70;;;;;;10297778;28;20033;-64
2022/12/14 08:54:45;;;;;;;13.45;6.10;;;2.50;95.20;;;;;;10301944;28;20049;-65
2022/12/14 08:59:46;;;;;;;12.77;5.47;;;2.20;95.40;;;;;;10309986;28;20658;-64
2022/12/14 09:04:47;;;;;;;13.18;5.40;;;2.50;95.50;;;;;;10311517;28;20022;-63
2022/12/14 09:09:47;;;;;;;13.45;5.97;;;2.60;95.50;;;;;;10313181;28;20037;-65
2022/12/14 09:14:49;;;;;;;11.10;5.55;;;2.60;95.40;;;;;;10315095;28;20469;-62
2022/12/14 09:19:49;;;;;;;11.57;5.28;;;2.60;95.40;;;;;;10314970;28;20030;-65
2022/12/14 09:24:51;;;;;;;15.73;6.78;;;3.10;95.20;;;;;;10314631;28;20313;-64
2022/12/14 09:29:52;;;;;;;12.27;5.53;;;3.30;95.50;;;;;;10316842;28;20132;-64
2022/12/14 09:34:53;;;;;;;14.25;5.30;;;2.60;95.30;;;;;;10322006;28;20944;-63
2022/12/14 09:39:54;;;;;;;11.95;5.53;;;4.10;95.70;;;;;;10318701;28;20464;-62
2022/12/14 09:45:22;;;;;;;15.38;6.68;;;3.30;95.60;;;;;;10316228;28;20481;-64
2022/12/14 09:50:23;;;;;;;11.13;5.13;;;2.80;95.40;;;;;;10313695;28;20152;-64
2022/12/14 09:55:45;;;;;;;13.63;5.28;;;2.70;95.30;;;;;;10317037;28;20038;-64
2022/12/14 10:01:07;;;;;;;10.82;5.40;;;2.80;95.50;;;;;;10316048;28;20034;-64
2022/12/14 10:06:55;;;;;;;15.82;6.38;;;2.80;95.30;;;;;;10308646;28;20040;-61
2022/12/14 10:12:11;;;;;;;14.07;5.90;;;3.00;96.40;;;;;;10283190;28;20053;-63
2022/12/14 10:17:16;;;;;;;15.00;5.43;;;3.80;95.70;;;;;;10317607;28;20134;-63
2022/12/14 10:22:24;;;;;;;12.70;6.00;;;3.20;95.30;;;;;;10316809;28;20029;-64
2022/12/14 10:27:28;;;;;;;14.85;6.28;;;3.20;95.90;;;;;;10319322;28;20033;-64
2022/12/14 10:32:37;;;;;;;13.38;5.93;;;3.20;95.40;;;;;;10316691;28;20126;-64
2022/12/14 10:37:41;;;;;;;;;;;3.30;95.40;;;;;;10322653;28;20051;-64
2022/12/14 10:43:13;;;;;;;16.50;6.35;;;3.40;95.40;;;;;;10315055;28;20320;-65
2022/12/14 10:48:36;;;;;;;16.33;5.55;;;3.40;95.50;;;;;;10301921;28;20959;-65
2022/12/14 10:53:58;;;;;;;11.82;5.28;;;3.40;95.40;;;;;;10317157;28;20443;-64
2022/12/14 10:59:16;;;;;;;15.18;5.72;;;3.50;95.40;;;;;;10316909;28;20069;-67
2022/12/14 11:04:38;;;;;;;15.43;5.95;;;4.60;95.90;;;;;;10318453;28;20046;-64
2022/12/14 11:09:39;;;;;;;14.27;5.78;;;3.60;95.40;;;;;;10311523;28;20114;-64
2022/12/14 11:14:54;;;;;;;14.70;6.38;;;3.50;95.40;;;;;;10314252;28;20310;-63
2022/12/14 11:20:21;;;;;;;12.57;5.15;;;3.60;95.40;;;;;;10317238;28;20479;-63
2022/12/14 11:25:35;;;;;;;13.50;5.85;;;3.60;95.40;;;;;;10306729;28;20071;-63
2022/12/14 11:30:36;;;;;;;12.15;5.22;;;3.70;95.40;;;;;;10310487;28;20436;-65
2022/12/14 11:35:37;;;;;;;16.80;5.85;;;3.60;95.40;;;;;;10306998;28;20033;-63
2022/12/14 11:40:37;;;;;;;15.23;5.63;;;3.70;95.40;;;;;;10305717;28;20849;-64
2022/12/14 11:45:39;;;;;;;13.20;5.65;;;3.60;95.40;;;;;;10302910;28;20037;-64
2022/12/14 11:50:41;;;;;;;13.57;5.25;;;3.60;95.40;;;;;;10301024;28;20045;-64
2022/12/14 11:55:56;;;;;;;11.50;5.18;;;3.60;95.20;;;;;;10300127;28;20017;-64
2022/12/14 12:01:10;;;;;;;11.85;5.35;;;3.60;95.40;;;;;;10282408;28;20284;-63
2022/12/14 12:06:17;;;;;;;13.35;5.82;;;4.00;95.60;;;;;;10300944;28;20758;-62
2022/12/14 12:11:21;;;;;;;12.80;6.13;;;3.70;95.60;;;;;;10292560;28;20501;-63
2022/12/14 12:16:22;;;;;;;15.77;6.10;;;3.70;95.50;;;;;;10288071;28;20678;-63
2022/12/14 12:21:30;;;;;;;11.68;5.40;;;3.60;95.40;;;;;;10287787;28;21691;-62
2022/12/14 12:26:50;;;;;;;15.20;6.23;;;4.00;95.50;;;;;;10300204;28;20026;-62
2022/12/14 12:31:57;;;;;;;13.98;6.57;;;3.60;95.50;;;;;;10303612;28;20545;-60
2022/12/14 12:37:02;;;;;;;14.35;6.22;;;1.60;95.10;;;;;;10299843;28;20402;-61
2022/12/14 12:42:16;;;;;;;13.82;5.65;;;3.60;95.60;;;;;;10302922;28;20080;-62
2022/12/14 12:47:29;;;;;;;12.57;5.85;;;3.70;95.70;;;;;;10302366;28;20034;-61
2022/12/14 12:52:35;;;;;;;12.60;5.47;;;3.70;95.70;;;;;;10313754;28;20041;-62
2022/12/14 12:57:42;;;;;;;12.27;5.75;;;3.90;95.70;;;;;;10311119;28;20021;-61
2022/12/14 13:02:48;;;;;;;15.52;6.32;;;4.20;95.80;;;;;;10315073;28;20471;-61
2022/12/14 13:08:05;;;;;;;13.55;5.85;;;3.60;95.70;;;;;;10314694;28;20302;-61
2022/12/14 13:13:12;;;;;;;14.52;5.97;;;3.70;95.90;;;;;;10312626;28;20591;-62
2022/12/14 13:18:24;;;;;;;19.70;6.43;;;3.60;95.80;;;;;;10309051;28;20105;-63
2022/12/14 13:23:27;;;;;;;12.77;5.38;;;4.30;95.90;;;;;;10309702;28;20390;-60
2022/12/14 13:29:02;;;;;;;15.95;6.38;;;3.60;95.80;;;;;;10311215;28;20312;-61
2022/12/14 13:34:21;;;;;;;15.27;6.30;;;3.70;96.00;;;;;;10307820;28;20051;-63
2022/12/14 13:39:59;;;;;;;13.50;6.25;;;3.70;96.10;;;;;;10307801;28;20025;-61
2022/12/14 13:45:01;;;;;;;16.42;7.18;;;3.60;95.80;;;;;;10309616;28;20033;-61
2022/12/14 13:50:04;;;;;;;16.00;6.97;;;3.60;95.80;;;;;;10308136;28;20759;-61
2022/12/14 13:55:24;;;;;;;13.45;5.88;;;3.60;95.90;;;;;;10312495;28;20137;-60
2022/12/14 14:01:00;;;;;;;;;;;3.80;95.90;;;;;;10310410;28;20037;-61
2022/12/14 14:06:33;;;;;;;14.65;6.43;;;3.70;95.90;;;;;;10241029;28;19916;-62
2022/12/14 14:11:33;;;;;;;14.43;6.38;;;3.60;95.80;;;;;;10311713;28;20052;-60
2022/12/14 14:16:43;;;;;;;13.80;6.50;;;3.60;95.90;;;;;;10299689;28;20542;-60
2022/12/14 14:22:01;;;;;;;12.73;6.32;;;3.80;95.90;;;;;;10297149;28;20022;-61
2022/12/14 14:27:19;;;;;;;16.35;6.85;;;3.60;95.90;;;;;;10300235;28;20141;-60
2022/12/14 14:32:36;;;;;;;14.45;6.55;;;4.50;96.20;;;;;;10290398;28;20046;-60
2022/12/14 14:37:39;;;;;;;15.18;5.80;;;3.60;95.90;;;;;;10299302;28;20249;-60
2022/12/14 14:43:06;;;;;;;13.85;5.75;;;3.90;96.00;;;;;;10297714;28;20040;-60
2022/12/14 14:48:21;;;;;;;11.63;5.80;;;3.50;95.90;;;;;;10301209;28;20076;-60
2022/12/14 14:53:34;;;;;;;12.55;5.63;;;3.50;95.90;;;;;;10303736;28;20611;-61
2022/12/14 14:58:38;;;;;;;13.23;5.88;;;3.50;96.00;;;;;;10311856;28;20030;-60
2022/12/14 15:03:56;;;;;;;12.48;5.10;;;3.50;96.00;;;;;;10310327;28;20110;-61
2022/12/14 15:09:02;;;;;;;13.35;5.30;;;3.40;96.00;;;;;;10311772;28;20551;-60
2022/12/14 15:14:20;;;;;;;10.80;5.22;;;3.40;96.00;;;;;;10309977;28;20056;-62
2022/12/14 15:19:32;;;;;;;14.97;6.43;;;3.40;96.00;;;;;;10310240;28;20060;-61
2022/12/14 15:24:40;;;;;;;12.05;5.20;;;3.40;96.20;;;;;;10305717;28;20041;-60
2022/12/14 15:29:44;;;;;;;11.75;5.43;;;4.30;96.30;;;;;;10304676;28;20572;-62
2022/12/14 15:35:04;;;;;;;10.52;4.88;;;4.00;96.20;;;;;;10307787;28;20042;-64
2022/12/14 15:40:16;;;;;;;12.60;5.38;;;3.40;96.10;;;;;;10308148;28;20029;-60
2022/12/14 15:45:42;;;;;;;12.18;5.50;;;3.40;96.10;;;;;;10305044;28;20901;-61
2022/12/14 15:50:45;;;;;;;11.27;5.40;;;3.30;96.10;;;;;;10283725;28;20140;-60
2022/12/14 15:55:51;;;;;;;13.98;5.03;;;3.40;96.10;;;;;;10335891;28;20032;-63
2022/12/14 16:00:56;;;;;;;17.00;6.32;;;3.30;96.20;;;;;;10396723;28;20033;-65
2022/12/14 16:05:59;;;;;;;12.73;5.50;;;4.20;96.40;;;;;;10389667;28;20108;-61
2022/12/14 16:11:04;;;;;;;14.77;6.68;;;3.70;96.20;;;;;;10374920;28;20049;-64
2022/12/14 16:16:10;;;;;;;13.77;6.32;;;3.30;96.10;;;;;;10380627;28;20155;-62
2022/12/14 16:21:29;;;;;;;13.00;5.50;;;3.20;96.10;;;;;;10379848;28;20113;-61
2022/12/14 16:26:36;;;;;;;13.98;6.32;;;3.90;96.20;;;;;;10392221;28;20453;-62
2022/12/14 16:31:37;;;;;;;12.48;5.68;;;4.00;96.20;;;;;;10394847;28;20117;-62
2022/12/14 16:36:39;;;;;;;16.23;6.07;;;3.20;96.00;;;;;;10394669;28;20028;-63
2022/12/14 16:41:50;;;;;;;14.27;6.50;;;3.90;96.20;;;;;;10394585;28;20441;-64
2022/12/14 16:47:03;;;;;;;14.07;6.13;;;3.20;96.00;;;;;;10393271;28;20033;-61
2022/12/14 16:52:42;;;;;;;14.27;6.07;;;3.10;96.00;;;;;;10389996;28;20132;-61
2022/12/14 16:57:54;;;;;;;15.70;6.43;;;3.10;95.90;;;;;;10310050;28;20030;-62
2022/12/14 17:02:56;;;;;;;14.65;6.30;;;3.10;96.00;;;;;;10373768;28;20025;-63
2022/12/14 17:08:01;;;;;;;15.23;6.65;;;3.10;96.00;;;;;;10396762;28;20037;-63
2022/12/14 17:13:02;;;;;;;15.82;6.68;;;3.00;96.10;;;;;;10377611;28;20632;-64
2022/12/14 17:18:05;;;;;;;13.05;5.90;;;3.10;96.00;;;;;;10395272;28;20017;-63
2022/12/14 17:23:09;;;;;;;14.93;6.70;;;3.10;96.00;;;;;;10394180;28;20036;-62
2022/12/14 17:28:23;;;;;;;16.42;6.63;;;3.50;96.10;;;;;;10378602;28;20022;-62
2022/12/14 17:33:26;;;;;;;12.80;6.30;;;3.40;96.00;;;;;;10392318;28;20138;-63
2022/12/14 17:38:27;;;;;;;13.35;6.25;;;3.00;95.90;;;;;;10379490;28;20026;-61
2022/12/14 17:43:27;;;;;;;12.88;6.15;;;3.50;96.00;;;;;;10387303;28;20059;-61
2022/12/14 17:48:28;;;;;;;13.75;6.35;;;3.00;95.90;;;;;;10394467;28;20030;-62
2022/12/14 17:53:29;;;;;;;14.00;6.57;;;3.10;95.90;;;;;;10399699;28;20435;-62
2022/12/14 17:58:31;;;;;;;13.60;5.45;;;4.40;96.30;;;;;;10399872;28;20252;-61
2022/12/14 18:03:36;;;;;;;16.38;6.45;;;3.50;96.00;;;;;;10399091;28;20029;-61
2022/12/14 18:08:37;;;;;;;15.50;7.28;;;4.10;96.40;;;;;;10398766;28;20104;-64
2022/12/14 18:13:37;;;;;;;14.30;6.35;;;3.50;96.20;;;;;;10397832;28;20452;-61
2022/12/14 18:18:38;;;;;;;17.20;7.18;;;3.40;96.30;;;;;;10398826;28;20028;-65
2022/12/14 18:23:39;;;;;;;15.77;7.00;;;3.40;96.10;;;;;;10396647;28;20388;-64
2022/12/14 18:28:41;;;;;;;14.88;6.95;;;3.20;96.00;;;;;;10399294;28;20370;-63
2022/12/14 18:33:42;;;;;;;15.05;7.10;;;3.10;96.00;;;;;;10398083;28;20029;-64
2022/12/14 18:38:43;;;;;;;13.57;6.22;;;3.40;96.10;;;;;;10396567;28;20030;-64
2022/12/14 18:43:44;;;;;;;14.55;7.25;;;3.00;96.00;;;;;;10395471;28;20504;-68
2022/12/14 18:48:44;;;;;;;16.77;6.50;;;3.00;96.00;;;;;;10398049;28;20029;-61
2022/12/14 18:53:45;;;;;;;13.32;6.75;;;2.90;96.10;;;;;;10397429;28;20048;-60
2022/12/14 18:58:46;;;;;;;15.07;6.15;;;4.20;96.30;;;;;;10399930;28;20033;-65
2022/12/14 19:03:47;;;;;;;14.13;6.15;;;3.30;96.10;;;;;;10399374;28;20052;-62
2022/12/14 19:08:48;;;;;;;14.10;6.32;;;2.90;96.00;;;;;;10381228;28;20022;-61
2022/12/14 19:13:49;;;;;;;12.57;5.93;;;3.40;96.10;;;;;;10399150;28;20037;-63
2022/12/14 19:18:50;;;;;;;15.73;5.88;;;2.90;95.90;;;;;;10397035;28;20700;-66
2022/12/14 19:23:51;;;;;;;14.48;6.72;;;4.20;96.20;;;;;;10399087;28;20018;-61
2022/12/14 19:28:51;;;;;;;14.43;5.70;;;2.80;95.90;;;;;;10394359;28;20052;-60
2022/12/14 19:33:52;;;;;;;13.10;6.03;;;4.10;96.20;;;;;;10381415;28;20034;-61
2022/12/14 19:38:53;;;;;;;14.98;6.10;;;3.00;95.90;;;;;;10378672;28;20061;-66
2022/12/14 19:43:56;;;;;;;13.27;6.10;;;2.80;95.80;;;;;;10381964;28;20075;-65
2022/12/14 19:48:58;;;;;;;12.95;5.72;;;2.80;95.80;;;;;;10378680;28;20093;-63
2022/12/14 19:54:01;;;;;;;11.85;6.53;;;3.30;95.90;;;;;;10379788;28;20052;-60
2022/12/14 19:59:02;;;;;;;12.93;6.03;;;3.20;95.90;;;;;;10374107;28;20492;-64
2022/12/14 20:04:03;;;;;;;12.35;5.88;;;4.50;96.20;;;;;;10380780;28;20030;-61
2022/12/14 20:09:05;;;;;;;14.27;5.85;;;2.70;95.80;;;;;;10392378;28;20053;-62
2022/12/14 20:14:06;;;;;;;12.77;5.57;;;2.90;96.10;;;;;;10377700;28;20045;-62
2022/12/14 20:19:06;;;;;;;14.57;5.93;;;2.90;95.90;;;;;;10384581;28;20029;-64
2022/12/14 20:24:09;;;;;;;13.95;6.43;;;3.60;96.00;;;;;;10389910;28;20022;-62
2022/12/14 20:29:12;;;;;;;13.43;6.07;;;2.90;95.90;;;;;;10388261;28;20025;-68
2022/12/14 20:34:13;;;;;;;13.38;6.25;;;4.20;96.20;;;;;;10389067;28;20086;-65
2022/12/14 20:39:13;;;;;;;12.85;6.03;;;2.80;95.80;;;;;;10389983;28;20135;-68
2022/12/14 20:44:15;;;;;;;12.32;5.55;;;3.30;95.90;;;;;;10371851;28;20044;-61
2022/12/14 20:49:17;;;;;;;12.82;6.30;;;2.80;95.80;;;;;;10388211;28;20029;-62
2022/12/14 20:54:21;;;;;;;13.00;5.70;;;2.80;95.80;;;;;;10371446;28;20160;-67
2022/12/14 20:59:21;;;;;;;13.82;5.85;;;2.80;95.80;;;;;;10390464;28;20045;-68
2022/12/14 21:04:22;;;;;;;14.73;5.63;;;4.10;96.10;;;;;;10406688;28;20040;-68
2022/12/14 21:09:23;;;;;;;11.45;5.45;;;3.30;95.90;;;;;;10389825;28;20159;-66
2022/12/14 21:14:26;;;;;;;11.88;5.15;;;2.70;95.70;;;;;;10396530;28;20053;-68
2022/12/14 21:19:27;;;;;;;12.95;5.75;;;3.40;95.90;;;;;;10394734;28;20017;-64
2022/12/14 21:24:28;;;;;;;11.75;5.78;;;2.80;95.80;;;;;;10395817;28;20476;-61
2022/12/14 21:29:29;;;;;;;11.85;6.10;;;2.70;95.70;;;;;;10396385;28;20404;-62
2022/12/14 21:34:30;;;;;;;13.60;5.90;;;2.70;95.70;;;;;;10384704;28;20041;-65
2022/12/14 21:39:31;;;;;;;12.43;5.80;;;2.90;95.80;;;;;;10383481;28;20088;-67
2022/12/14 21:44:35;;;;;;;14.68;5.85;;;2.70;95.70;;;;;;10385075;28;20080;-68
2022/12/14 21:49:40;;;;;;;11.18;5.47;;;3.10;95.80;;;;;;10386967;28;20026;-68
2022/12/14 21:54:42;;;;;;;11.85;5.53;;;2.70;95.70;;;;;;10385965;28;20563;-69
2022/12/14 21:59:44;;;;;;;10.70;5.45;;;2.70;95.70;;;;;;10388414;28;20025;-63
2022/12/14 22:04:45;;;;;;;11.38;6.30;;;4.40;96.10;;;;;;10395079;28;20028;-62
2022/12/14 22:09:46;;;;;;;13.90;5.65;;;2.70;95.70;;;;;;10393203;28;20052;-63
2022/12/14 22:14:48;;;;;;;13.00;6.53;;;3.90;96.00;;;;;;10393379;28;20042;-62
2022/12/14 22:19:50;;;;;;;15.10;5.95;;;3.90;96.00;;;;;;10393718;28;20029;-61
2022/12/14 22:24:50;;;;;;;11.43;5.25;;;3.20;95.80;;;;;;10395094;28;20108;-68
2022/12/14 22:29:51;;;;;;;10.45;4.93;;;3.10;95.80;;;;;;10391839;28;20515;-68
2022/12/14 22:34:52;;;;;;;13.27;5.60;;;2.60;95.60;;;;;;10391280;28;20041;-61
2022/12/14 22:39:52;;;;;;;10.88;5.45;;;3.70;95.90;;;;;;10392745;28;20053;-62
2022/12/14 22:44:53;;;;;;;12.75;5.43;;;3.50;95.80;;;;;;10393373;28;20041;-61
2022/12/14 22:49:57;;;;;;;11.75;5.50;;;2.60;95.60;;;;;;10391919;28;20026;-61
2022/12/14 22:54:59;;;;;;;10.10;5.00;;;2.60;95.60;;;;;;10391090;28;20049;-62
2022/12/14 23:00:10;;;;;;;10.35;4.93;;;2.60;95.60;;;;;;10391447;28;20040;-66
2022/12/14 23:05:11;;;;;;;10.45;5.05;;;2.60;95.60;;;;;;10380485;28;20034;-63
